createdAt,value
2023-02-17T00:01:30.974Z,34.58
2023-02-17T00:03:58.951Z,35.17
2023-02-17T00:06:30.221Z,32.22
2023-02-17T00:08:58.286Z,29.75
2023-02-17T00:11:26.074Z,29.10
2023-02-17T00:13:56.305Z,31.08
2023-02-17T00:16:27.337Z,28.42
2023-02-17T00:18:58.446Z,34.80
2023-02-17T00:21:31.486Z,33.35
2023-02-17T00:23:59.592Z,31.00
2023-02-17T00:26:28.059Z,59.05
2023-02-17T00:28:55.518Z,64.00
2023-02-17T00:31:24.302Z,59.78
2023-02-17T00:33:56.039Z,41.70
2023-02-17T00:36:25.224Z,38.63
2023-02-17T00:38:56.761Z,37.15
2023-02-17T00:41:26.907Z,34.47
2023-02-17T00:43:54.793Z,31.20
2023-02-17T00:46:22.900Z,40.35
2023-02-17T00:48:52.934Z,35.30
2023-02-17T00:51:21.538Z,33.15
2023-02-17T00:53:50.375Z,34.50
2023-02-17T00:56:18.145Z,40.55
2023-02-17T00:58:46.517Z,34.42
2023-02-17T01:01:14.095Z,39.53
2023-02-17T01:03:42.464Z,35.13
2023-02-17T01:06:23.128Z,36.17
2023-02-17T01:11:23.775Z,33.97
2023-02-17T01:13:51.802Z,45.05
2023-02-17T01:16:27.107Z,38.45
2023-02-17T01:18:55.788Z,34.95
2023-02-17T01:21:29.848Z,35.92
2023-02-17T01:24:00.323Z,32.97
2023-02-17T01:26:32.012Z,33.38
2023-02-17T01:29:02.633Z,35.10
2023-02-17T01:31:31.130Z,37.60
2023-02-17T01:34:01.523Z,34.80
2023-02-17T01:38:57.414Z,34.90
2023-02-17T01:41:27.600Z,36.42
2023-02-17T01:44:25.863Z,40.25
2023-02-17T01:46:55.731Z,41.00
2023-02-17T01:49:39.623Z,38.63
2023-02-17T01:52:36.192Z,33.00
2023-02-17T01:55:08.666Z,33.25
2023-02-17T01:57:41.492Z,39.25
2023-02-17T02:00:12.482Z,39.40
2023-02-17T02:02:43.392Z,31.50
2023-02-17T02:05:15.877Z,32.40
2023-02-17T02:07:47.694Z,33.60
2023-02-17T02:10:17.702Z,30.45
2023-02-17T02:12:46.499Z,30.95
2023-02-17T02:15:25.004Z,41.63
2023-02-17T02:18:26.330Z,34.45
2023-02-17T02:20:59.767Z,36.17
2023-02-17T02:24:05.622Z,39.22
2023-02-17T02:27:01.614Z,31.33
2023-02-17T02:29:47.482Z,30.45
2023-02-17T02:32:35.535Z,33.25
2023-02-17T02:35:20.750Z,31.08
2023-02-17T02:37:57.761Z,33.63
2023-02-17T02:40:31.317Z,37.10
2023-02-17T02:43:01.007Z,30.15
2023-02-17T02:45:30.297Z,32.83
2023-02-17T02:47:59.595Z,28.58
2023-02-17T02:50:47.714Z,28.70
2023-02-17T02:53:36.426Z,31.55
2023-02-17T02:56:29.238Z,31.25
2023-02-17T02:59:21.264Z,30.27
2023-02-17T03:02:03.771Z,26.20
2023-02-17T03:04:37.958Z,28.45
2023-02-17T03:07:23.186Z,30.10
2023-02-17T03:09:56.619Z,27.23
2023-02-17T03:12:24.965Z,28.40
2023-02-17T03:15:02.565Z,36.50
2023-02-17T03:17:34.017Z,30.23
2023-02-17T03:20:04.985Z,27.80
2023-02-17T03:22:43.101Z,26.17
2023-02-17T03:25:11.858Z,30.88
2023-02-17T03:27:39.219Z,29.75
2023-02-17T03:30:08.203Z,35.30
2023-02-17T03:32:37.651Z,29.27
2023-02-17T03:35:05.820Z,30.23
2023-02-17T03:37:34.015Z,28.20
2023-02-17T03:40:01.395Z,26.20
2023-02-17T03:42:30.692Z,27.73
2023-02-17T03:44:58.143Z,25.73
2023-02-17T03:47:26.158Z,22.85
2023-02-17T03:49:53.483Z,23.80
2023-02-17T03:52:20.862Z,25.52
2023-02-17T03:54:48.654Z,24.92
2023-02-17T03:57:16.014Z,36.83
2023-02-17T03:59:43.783Z,40.53
2023-02-17T04:02:11.098Z,29.10
2023-02-17T04:04:39.319Z,25.02
2023-02-17T04:07:06.721Z,25.75
2023-02-17T04:09:35.241Z,24.40
2023-02-17T04:12:03.372Z,28.92
2023-02-17T04:14:32.515Z,25.20
2023-02-17T04:16:59.918Z,25.85
2023-02-17T04:19:28.046Z,22.85
2023-02-17T04:21:55.465Z,23.48
2023-02-17T04:24:24.093Z,23.02
2023-02-17T04:26:51.364Z,22.85
2023-02-17T04:29:19.942Z,24.77
2023-02-17T04:31:47.572Z,29.60
2023-02-17T04:34:16.101Z,31.48
2023-02-17T04:36:44.438Z,29.90
2023-02-17T04:39:12.386Z,28.83
2023-02-17T04:41:40.167Z,36.00
2023-02-17T04:44:09.025Z,64.45
2023-02-17T04:46:36.382Z,31.35
2023-02-17T04:49:05.639Z,35.90
2023-02-17T04:51:33.029Z,39.78
2023-02-17T04:54:01.300Z,51.78
2023-02-17T04:56:30.401Z,51.57
2023-02-17T04:58:58.804Z,43.50
2023-02-17T05:01:26.447Z,46.53
2023-02-17T05:03:53.986Z,45.05
2023-02-17T05:06:22.789Z,42.05
2023-02-17T05:08:52.601Z,44.90
2023-02-17T05:11:20.373Z,45.53
2023-02-17T05:13:49.353Z,40.80
2023-02-17T05:16:17.225Z,35.30
2023-02-17T05:18:45.398Z,32.10
2023-02-17T05:21:12.765Z,32.35
2023-02-17T05:23:41.517Z,38.38
2023-02-17T05:26:10.052Z,32.80
2023-02-17T05:28:38.308Z,29.98
2023-02-17T05:31:06.912Z,32.65
2023-02-17T05:33:35.421Z,31.98
2023-02-17T05:36:05.611Z,30.15
2023-02-17T05:38:33.246Z,32.63
2023-02-17T05:41:00.829Z,29.75
2023-02-17T05:43:29.033Z,30.52
2023-02-17T05:45:56.392Z,30.45
2023-02-17T05:48:24.486Z,29.02
2023-02-17T05:50:51.779Z,29.55
2023-02-17T05:53:19.293Z,35.55
2023-02-17T05:55:48.771Z,31.48
2023-02-17T05:58:17.173Z,40.15
2023-02-17T06:00:46.230Z,32.20
2023-02-17T06:03:14.290Z,32.80
2023-02-17T06:05:41.811Z,46.65
2023-02-17T06:08:09.221Z,43.53
2023-02-17T06:10:36.631Z,44.35
2023-02-17T06:13:04.901Z,40.95
2023-02-17T06:15:35.473Z,36.30
2023-02-17T06:18:03.318Z,34.78
2023-02-17T06:20:31.374Z,38.53
2023-02-17T06:22:58.683Z,36.67
2023-02-17T06:25:25.971Z,33.95
2023-02-17T06:27:53.998Z,29.00
2023-02-17T06:30:27.048Z,33.85
2023-02-17T06:32:54.795Z,30.45
2023-02-17T06:35:23.101Z,29.70
2023-02-17T06:37:50.590Z,32.50
2023-02-17T06:40:18.250Z,35.17
2023-02-17T06:42:45.966Z,31.20
2023-02-17T06:45:13.654Z,31.73
2023-02-17T06:47:43.101Z,29.10
2023-02-17T06:50:11.233Z,28.65
2023-02-17T06:52:38.547Z,27.33
2023-02-17T06:55:08.275Z,29.50
2023-02-17T06:57:35.596Z,28.48
2023-02-17T07:00:06.177Z,30.30
2023-02-17T07:02:33.857Z,32.90
2023-02-17T07:05:01.450Z,29.08
2023-02-17T07:07:28.910Z,30.35
2023-02-17T07:09:56.238Z,32.92
2023-02-17T07:12:23.515Z,33.15
2023-02-17T07:14:51.965Z,49.67
2023-02-17T07:17:19.348Z,37.47
2023-02-17T07:19:46.624Z,34.10
2023-02-17T07:22:13.934Z,44.05
2023-02-17T07:24:41.569Z,38.03
2023-02-17T07:27:10.849Z,34.88
2023-02-17T07:29:38.389Z,34.55
2023-02-17T07:32:05.776Z,35.75
2023-02-17T07:34:33.087Z,31.88
2023-02-17T07:37:01.593Z,32.00
2023-02-17T07:39:28.808Z,33.45
2023-02-17T07:42:01.500Z,35.72
2023-02-17T07:44:28.898Z,36.65
2023-02-17T07:46:58.616Z,32.50
2023-02-17T07:49:26.244Z,34.80
2023-02-17T07:51:54.502Z,35.60
2023-02-17T07:54:22.108Z,32.80
2023-02-17T07:56:50.153Z,39.05
2023-02-17T07:59:17.523Z,45.95
2023-02-17T08:01:45.402Z,38.45
2023-02-17T08:04:12.942Z,43.13
2023-02-17T08:06:40.706Z,37.05
2023-02-17T08:09:29.168Z,28.48
2023-02-17T08:12:16.383Z,25.30
2023-02-17T08:14:46.091Z,22.85
2023-02-17T08:17:13.415Z,23.05
2023-02-17T08:19:48.588Z,22.98
2023-02-17T08:22:19.013Z,35.58
2023-02-17T08:24:46.778Z,40.90
2023-02-17T08:27:15.845Z,33.35
2023-02-17T08:29:44.651Z,25.17
2023-02-17T08:32:14.145Z,35.38
2023-02-17T08:34:43.425Z,54.75
2023-02-17T08:37:12.225Z,44.17
2023-02-17T08:39:39.721Z,23.35
2023-02-17T08:42:07.440Z,22.17
2023-02-17T08:44:36.694Z,31.92
2023-02-17T08:47:05.912Z,32.15
2023-02-17T08:49:33.343Z,30.35
2023-02-17T08:52:02.218Z,31.83
2023-02-17T08:54:29.759Z,30.58
2023-02-17T08:56:58.730Z,31.38
2023-02-17T08:59:27.234Z,38.70
2023-02-17T09:01:55.017Z,43.72
2023-02-17T09:04:23.962Z,32.90
2023-02-17T09:06:53.201Z,25.52
2023-02-17T09:09:23.952Z,23.67
2023-02-17T09:11:51.470Z,24.45
2023-02-17T09:14:19.412Z,28.33
2023-02-17T09:16:46.846Z,29.55
2023-02-17T09:19:14.817Z,26.25
2023-02-17T09:21:42.754Z,25.48
2023-02-17T09:24:10.151Z,26.65
2023-02-17T09:26:37.508Z,24.52
2023-02-17T09:29:06.133Z,60.88
2023-02-17T09:31:36.401Z,54.95
2023-02-17T09:34:05.094Z,33.63
2023-02-17T09:36:38.070Z,42.10
2023-02-17T09:39:06.302Z,34.83
2023-02-17T09:41:47.932Z,35.55
2023-02-17T09:44:23.745Z,29.88
2023-02-17T09:47:07.929Z,29.45
2023-02-17T09:50:14.259Z,27.88
2023-02-17T09:53:03.910Z,29.20
2023-02-17T09:55:38.790Z,28.05
2023-02-17T09:58:18.675Z,25.77
2023-02-17T10:03:32.733Z,23.60
2023-02-17T10:06:06.952Z,22.73
2023-02-17T10:09:24.945Z,27.73
2023-02-17T10:11:59.993Z,22.33
2023-02-17T10:14:40.376Z,22.42
2023-02-17T10:17:36.263Z,22.83
2023-02-17T10:20:09.231Z,23.23
2023-02-17T10:22:40.037Z,24.33
2023-02-17T10:27:59.248Z,32.92
2023-02-17T10:31:04.362Z,26.80
2023-02-17T10:33:49.892Z,55.75
2023-02-17T10:36:25.530Z,21.92
2023-02-17T10:39:06.389Z,22.55
2023-02-17T10:41:37.162Z,22.15
2023-02-17T10:44:14.533Z,21.95
2023-02-17T10:46:44.367Z,49.33
2023-02-17T10:49:34.728Z,26.10
2023-02-17T10:52:13.297Z,23.88
2023-02-17T10:54:54.558Z,22.42
2023-02-17T10:57:26.930Z,19.35
2023-02-17T10:59:54.542Z,20.50
2023-02-17T11:02:33.839Z,23.50
2023-02-17T11:05:01.403Z,18.85
2023-02-17T11:07:47.190Z,27.13
2023-02-17T11:10:37.980Z,36.53
2023-02-17T11:15:48.194Z,23.25
2023-02-17T11:18:27.820Z,37.70
2023-02-17T11:21:08.940Z,28.77
2023-02-17T11:23:46.952Z,25.40
2023-02-17T11:26:23.512Z,38.80
2023-02-17T11:28:51.837Z,21.55
2023-02-17T11:31:28.185Z,18.52
2023-02-17T11:33:56.938Z,23.88
2023-02-17T11:36:28.609Z,20.17
2023-02-17T11:38:57.069Z,25.25
2023-02-17T11:41:24.814Z,22.90
2023-02-17T11:44:00.371Z,34.40
2023-02-17T11:47:09.404Z,20.25
2023-02-17T11:50:10.895Z,19.83
2023-02-17T11:52:49.907Z,22.85
2023-02-17T11:55:27.868Z,16.10
2023-02-17T11:58:25.845Z,17.08
2023-02-17T12:01:02.517Z,27.45
2023-02-17T12:04:06.726Z,31.45
2023-02-17T12:06:47.919Z,33.78
2023-02-17T12:09:37.629Z,17.95
2023-02-17T12:12:21.662Z,18.13
2023-02-17T12:15:31.397Z,16.40
2023-02-17T12:18:15.148Z,26.30
2023-02-17T12:20:50.047Z,16.20
2023-02-17T12:23:32.801Z,16.10
2023-02-17T12:26:17.112Z,16.25
2023-02-17T12:29:02.463Z,18.35
2023-02-17T12:31:54.606Z,38.40
2023-02-17T12:34:48.263Z,19.70
2023-02-17T12:37:36.678Z,40.97
2023-02-17T12:40:15.009Z,19.35
2023-02-17T12:42:53.242Z,16.60
2023-02-17T12:45:26.601Z,15.50
2023-02-17T12:48:04.075Z,16.23
2023-02-17T12:50:50.983Z,14.20
2023-02-17T12:53:51.128Z,15.65
2023-02-17T12:56:31.521Z,14.23
2023-02-17T12:59:22.247Z,14.15
2023-02-17T13:02:11.041Z,13.98
2023-02-17T13:04:40.342Z,16.02
2023-02-17T13:07:26.843Z,14.77
2023-02-17T13:09:56.616Z,15.50
2023-02-17T13:12:24.246Z,18.98
2023-02-17T13:14:56.794Z,17.98
2023-02-17T13:17:25.562Z,17.30
2023-02-17T13:20:11.383Z,14.80
2023-02-17T13:22:40.798Z,15.45
2023-02-17T13:25:26.096Z,14.45
2023-02-17T13:27:53.608Z,17.05
2023-02-17T13:30:30.953Z,16.40
2023-02-17T13:33:05.184Z,18.10
2023-02-17T13:35:37.249Z,15.95
2023-02-17T13:38:05.091Z,16.02
2023-02-17T13:40:38.652Z,15.45
2023-02-17T13:43:20.001Z,15.63
2023-02-17T13:46:02.838Z,15.27
2023-02-17T13:48:35.321Z,16.63
2023-02-17T13:51:07.754Z,17.35
2023-02-17T13:53:41.300Z,15.20
2023-02-17T13:56:24.304Z,17.33
2023-02-17T13:58:52.176Z,15.63
2023-02-17T14:01:26.285Z,14.50
2023-02-17T14:03:55.904Z,14.88
2023-02-17T14:06:28.411Z,14.80
2023-02-17T14:08:56.678Z,15.40
2023-02-17T14:11:27.115Z,15.20
2023-02-17T14:13:59.417Z,15.93
2023-02-17T14:16:39.469Z,16.10
2023-02-17T14:19:16.740Z,17.17
2023-02-17T14:22:04.394Z,15.70
2023-02-17T14:24:36.317Z,15.82
2023-02-17T14:27:10.056Z,16.95
2023-02-17T14:29:46.670Z,15.73
2023-02-17T14:32:47.293Z,16.08
2023-02-17T14:35:14.787Z,15.70
2023-02-17T14:37:43.559Z,16.45
2023-02-17T14:40:24.366Z,15.77
2023-02-17T14:42:52.382Z,15.70
2023-02-17T14:45:24.966Z,17.63
2023-02-17T14:47:52.607Z,18.38
2023-02-17T14:50:20.939Z,19.88
2023-02-17T14:52:50.334Z,18.70
2023-02-17T14:55:36.722Z,18.23
2023-02-17T14:58:05.143Z,16.63
2023-02-17T15:00:35.553Z,15.98
2023-02-17T15:03:04.077Z,16.42
2023-02-17T15:05:31.450Z,17.40
2023-02-17T15:08:01.522Z,16.40
2023-02-17T15:10:30.038Z,18.10
2023-02-17T15:12:57.499Z,18.58
2023-02-17T15:15:27.488Z,18.02
2023-02-17T15:17:54.964Z,17.77
2023-02-17T15:20:22.266Z,17.02
2023-02-17T15:22:52.995Z,16.90
2023-02-17T15:25:24.509Z,17.38
2023-02-17T15:27:52.999Z,17.98
2023-02-17T15:30:27.474Z,17.40
2023-02-17T15:32:56.931Z,17.55
2023-02-17T15:35:27.134Z,16.60
2023-02-17T15:40:27.630Z,19.40
2023-02-17T15:43:03.702Z,17.42
2023-02-17T15:45:35.574Z,16.65
2023-02-17T15:48:14.216Z,15.90
2023-02-17T15:50:42.952Z,15.90
2023-02-17T15:53:11.316Z,14.27
2023-02-17T15:55:39.606Z,16.05
2023-02-17T15:58:14.139Z,15.25
2023-02-17T16:00:42.079Z,15.45
2023-02-17T16:03:14.934Z,13.70
2023-02-17T16:05:42.900Z,13.60
2023-02-17T16:08:11.558Z,12.60
2023-02-17T16:10:42.176Z,13.52
2023-02-17T16:15:42.069Z,15.77
2023-02-17T16:18:28.052Z,13.10
2023-02-17T16:20:55.720Z,11.20
2023-02-17T16:23:22.949Z,11.60
2023-02-17T16:25:51.610Z,13.10
2023-02-17T16:28:22.127Z,11.57
2023-02-17T16:30:50.268Z,12.40
2023-02-17T16:33:18.801Z,12.98
2023-02-17T16:35:46.283Z,12.73
2023-02-17T16:38:23.611Z,13.57
2023-02-17T16:40:54.929Z,13.15
2023-02-17T16:43:27.865Z,13.13
2023-02-17T16:45:58.590Z,12.38
2023-02-17T16:50:57.273Z,11.85
2023-02-17T16:53:24.511Z,11.82
2023-02-17T16:56:12.934Z,15.48
2023-02-17T16:58:41.581Z,13.68
2023-02-17T17:01:13.060Z,14.95
2023-02-17T17:03:42.844Z,14.02
2023-02-17T17:06:23.928Z,13.50
2023-02-17T17:08:52.608Z,15.23
2023-02-17T17:11:25.449Z,13.25
2023-02-17T17:13:53.340Z,20.35
2023-02-17T17:16:31.370Z,13.25
2023-02-17T17:18:59.762Z,23.75
2023-02-17T17:21:28.924Z,16.50
2023-02-17T17:23:56.394Z,33.65
2023-02-17T17:26:26.707Z,30.27
2023-02-17T17:28:54.682Z,23.00
2023-02-17T17:31:23.803Z,12.00
2023-02-17T17:33:52.936Z,15.25
2023-02-17T17:36:45.994Z,13.50
2023-02-17T17:39:22.617Z,17.77
2023-02-17T17:41:51.687Z,26.92
2023-02-17T17:44:20.705Z,19.10
2023-02-17T17:46:48.194Z,31.77
2023-02-17T17:49:21.931Z,34.78
2023-02-17T17:51:50.897Z,21.90
2023-02-17T17:54:18.615Z,20.73
2023-02-17T17:56:46.022Z,20.52
2023-02-17T17:59:15.548Z,20.67
2023-02-17T18:01:45.624Z,16.90
2023-02-17T18:04:14.465Z,19.77
2023-02-17T18:06:52.766Z,18.75
2023-02-17T18:09:31.615Z,18.58
2023-02-17T18:12:04.050Z,21.77
2023-02-17T18:14:33.770Z,22.63
2023-02-17T18:17:02.921Z,20.48
2023-02-17T18:19:32.618Z,21.92
2023-02-17T18:22:01.076Z,20.42
2023-02-17T18:24:30.183Z,17.30
2023-02-17T18:26:57.974Z,18.50
2023-02-17T18:29:25.702Z,19.13
2023-02-17T18:31:53.443Z,17.23
2023-02-17T18:34:21.050Z,16.35
2023-02-17T18:36:48.700Z,16.02
2023-02-17T18:39:16.317Z,15.68
2023-02-17T18:41:43.877Z,21.80
2023-02-17T18:44:13.742Z,17.90
2023-02-17T18:46:41.598Z,31.73
2023-02-17T18:49:09.546Z,30.35
2023-02-17T18:51:37.092Z,25.85
2023-02-17T18:54:05.614Z,28.63
2023-02-17T18:56:34.283Z,29.02
2023-02-17T18:59:05.479Z,28.73
2023-02-17T19:01:39.377Z,33.35
2023-02-17T19:04:10.250Z,36.60
2023-02-17T19:06:41.808Z,32.25
2023-02-17T19:09:09.956Z,28.65
2023-02-17T19:11:37.565Z,29.58
2023-02-17T19:14:06.349Z,28.10
2023-02-17T19:16:33.812Z,20.92
2023-02-17T19:19:01.667Z,21.85
2023-02-17T19:21:29.148Z,23.20
2023-02-17T19:23:57.007Z,20.90
2023-02-17T19:26:24.223Z,21.33
2023-02-17T19:28:52.843Z,19.35
2023-02-17T19:31:20.986Z,22.08
2023-02-17T19:33:49.779Z,30.85
2023-02-17T19:36:20.013Z,27.63
2023-02-17T19:38:50.407Z,25.88
2023-02-17T19:43:47.039Z,28.67
2023-02-17T19:46:25.848Z,27.40
2023-02-17T19:48:53.343Z,27.25
2023-02-17T19:51:21.068Z,48.25
2023-02-17T19:53:48.674Z,55.03
2023-02-17T19:56:25.046Z,53.17
2023-02-17T19:58:53.215Z,39.70
2023-02-17T20:01:23.593Z,31.92
2023-02-17T20:03:52.496Z,29.35
2023-02-17T20:06:23.035Z,29.73
2023-02-17T20:08:56.240Z,26.85
2023-02-17T20:11:24.734Z,25.83
2023-02-17T20:13:52.973Z,28.67
2023-02-17T20:16:21.090Z,26.67
2023-02-17T20:18:50.215Z,26.90
2023-02-17T20:21:22.144Z,28.92
2023-02-17T20:23:50.414Z,30.10
2023-02-17T20:26:27.325Z,26.85
2023-02-17T20:28:55.732Z,28.70
2023-02-17T20:31:23.711Z,26.60
2023-02-17T20:33:53.942Z,32.63
2023-02-17T20:36:23.508Z,35.55
2023-02-17T20:38:51.184Z,29.50
2023-02-17T20:41:20.631Z,21.60
2023-02-17T20:43:52.064Z,21.95
2023-02-17T20:46:26.707Z,23.40
2023-02-17T20:48:55.605Z,22.08
2023-02-17T20:51:23.955Z,18.33
2023-02-17T20:53:52.308Z,17.30
2023-02-17T20:56:23.100Z,16.90
2023-02-17T20:58:52.474Z,16.35
2023-02-17T21:01:20.808Z,17.33
2023-02-17T21:03:48.278Z,16.90
2023-02-17T21:06:34.446Z,16.92
2023-02-17T21:09:06.081Z,19.38
2023-02-17T21:11:34.518Z,21.60
2023-02-17T21:14:02.005Z,23.85
2023-02-17T21:16:35.478Z,21.52
2023-02-17T21:19:35.146Z,20.35
2023-02-17T21:22:02.656Z,18.80
2023-02-17T21:24:30.166Z,22.65
2023-02-17T21:26:57.700Z,19.25
2023-02-17T21:29:25.094Z,24.55
2023-02-17T21:31:53.513Z,21.35
2023-02-17T21:34:23.024Z,23.00
2023-02-17T21:36:50.718Z,25.48
2023-02-17T21:39:19.790Z,18.45
2023-02-17T21:41:47.336Z,17.98
2023-02-17T21:44:35.017Z,17.35
2023-02-17T21:47:04.527Z,19.02
2023-02-17T21:49:33.714Z,23.30
2023-02-17T21:52:01.318Z,19.10
2023-02-17T21:54:28.791Z,16.45
2023-02-17T21:56:57.890Z,16.58
2023-02-17T21:59:25.261Z,23.13
2023-02-17T22:01:53.713Z,22.63
2023-02-17T22:04:21.978Z,18.15
2023-02-17T22:06:49.520Z,18.60
2023-02-17T22:09:18.386Z,16.45
2023-02-17T22:11:49.198Z,17.20
2023-02-17T22:14:18.667Z,20.50
2023-02-17T22:16:47.822Z,20.98
2023-02-17T22:19:20.880Z,20.05
2023-02-17T22:21:50.448Z,20.40
2023-02-17T22:24:21.043Z,23.35
2023-02-17T22:26:50.132Z,25.23
2023-02-17T22:29:17.478Z,20.23
2023-02-17T22:31:45.309Z,20.35
2023-02-17T22:34:14.851Z,17.85
2023-02-17T22:36:42.502Z,20.85
2023-02-17T22:39:13.174Z,20.13
2023-02-17T22:44:09.044Z,20.98
2023-02-17T22:46:36.590Z,22.02
2023-02-17T22:49:04.139Z,20.17
2023-02-17T22:51:36.122Z,23.55
2023-02-17T22:54:03.758Z,20.95
2023-02-17T22:56:32.409Z,20.83
2023-02-17T22:59:04.011Z,19.85
2023-02-17T23:01:35.071Z,18.30
2023-02-17T23:04:02.954Z,19.08
2023-02-17T23:06:34.765Z,15.18
2023-02-17T23:09:02.610Z,19.67
2023-02-17T23:11:54.612Z,19.10
2023-02-17T23:14:35.507Z,19.05
2023-02-17T23:17:06.397Z,17.35
2023-02-17T23:19:34.495Z,18.88
2023-02-17T23:22:08.272Z,21.42
2023-02-17T23:24:35.731Z,20.63
2023-02-17T23:27:04.023Z,17.52
2023-02-17T23:29:32.888Z,21.00
2023-02-17T23:32:02.174Z,21.70
2023-02-17T23:34:29.650Z,36.45
2023-02-17T23:36:58.651Z,34.83
2023-02-17T23:39:26.316Z,24.65
2023-02-17T23:41:54.875Z,20.42
2023-02-17T23:44:22.461Z,21.58
2023-02-17T23:46:50.204Z,20.52
2023-02-17T23:49:18.064Z,21.48
2023-02-17T23:51:48.086Z,22.00
2023-02-17T23:54:16.010Z,20.63
2023-02-17T23:56:43.847Z,21.35
2023-02-17T23:59:12.005Z,20.58
